createdAt,value
2023-03-12T00:06:49.805Z,10.53
2023-03-12T00:16:53.419Z,8.70
2023-03-12T00:26:57.568Z,9.13
2023-03-12T00:37:03.180Z,11.13
2023-03-12T00:47:08.584Z,10.40
2023-03-12T00:57:12.072Z,6.23
2023-03-12T01:07:16.953Z,10.80
2023-03-12T01:17:20.525Z,8.90
2023-03-12T01:27:24.911Z,10.93
2023-03-12T01:37:28.028Z,16.10
2023-03-12T01:47:33.366Z,6.00
2023-03-12T01:57:47.438Z,6.13
2023-03-12T02:07:52.633Z,18.80
2023-03-12T02:17:56.040Z,8.07
2023-03-12T02:28:04.005Z,7.10
2023-03-12T02:38:34.304Z,12.20
2023-03-12T02:48:38.881Z,6.30
2023-03-12T02:58:43.056Z,9.27
2023-03-12T03:08:48.650Z,6.53
2023-03-12T03:18:52.888Z,6.37
2023-03-12T03:28:57.551Z,7.00
2023-03-12T03:39:00.799Z,7.47
2023-03-12T03:49:07.637Z,10.27
2023-03-12T03:59:12.255Z,9.60
2023-03-12T04:09:18.684Z,6.30
2023-03-12T04:19:22.102Z,6.23
2023-03-12T04:29:27.611Z,6.10
2023-03-12T04:39:31.483Z,6.10
2023-03-12T04:49:35.848Z,10.63
2023-03-12T04:59:39.105Z,7.60
2023-03-12T05:09:44.704Z,7.77
2023-03-12T05:19:47.663Z,10.20
2023-03-12T05:29:52.953Z,6.57
2023-03-12T05:39:59.427Z,6.83
2023-03-12T05:50:05.366Z,7.97
2023-03-12T06:00:11.549Z,12.30
2023-03-12T06:10:24.461Z,4.47
2023-03-12T06:20:27.309Z,7.30
2023-03-12T06:30:32.195Z,11.77
2023-03-12T06:40:35.474Z,7.20
2023-03-12T06:50:40.203Z,7.13
2023-03-12T07:11:06.178Z,6.73
2023-03-12T07:21:09.197Z,7.80
2023-03-12T07:31:13.846Z,10.57
2023-03-12T07:41:17.441Z,6.27
2023-03-12T07:51:21.925Z,9.03
2023-03-12T08:01:32.460Z,9.37
2023-03-12T08:11:37.457Z,11.60
2023-03-12T08:21:45.284Z,6.53
2023-03-12T08:32:03.725Z,10.37
2023-03-12T08:42:07.931Z,9.60
2023-03-12T08:52:13.430Z,7.37
2023-03-12T09:02:16.529Z,5.10
2023-03-12T09:12:20.726Z,10.23
2023-03-12T09:22:23.805Z,5.67
2023-03-12T09:32:28.710Z,9.87
2023-03-12T09:42:40.191Z,9.20
2023-03-12T09:52:52.174Z,8.47
2023-03-12T10:03:11.157Z,9.57
2023-03-12T10:13:35.189Z,11.43
2023-03-12T10:23:51.077Z,11.13
2023-03-12T10:33:58.812Z,13.63
2023-03-12T10:44:24.008Z,7.83
2023-03-12T10:54:34.521Z,2.77
2023-03-12T11:04:38.628Z,3.27
2023-03-12T11:14:57.265Z,2.37
2023-03-12T11:25:06.281Z,5.23
2023-03-12T11:35:13.411Z,3.90
2023-03-12T11:45:24.162Z,6.50
2023-03-12T11:55:47.517Z,12.40
2023-03-12T12:05:59.384Z,3.13
2023-03-12T12:16:17.788Z,5.40
2023-03-12T12:26:27.450Z,6.10
2023-03-12T12:46:40.329Z,3.30
2023-03-12T12:56:50.295Z,11.00
2023-03-12T13:07:03.785Z,3.80
2023-03-12T13:17:22.275Z,8.40
2023-03-12T13:27:30.220Z,6.00
2023-03-12T13:38:01.909Z,4.93
2023-03-12T13:48:06.688Z,8.10
2023-03-12T13:58:17.083Z,4.67
2023-03-12T14:08:40.413Z,12.13
2023-03-12T14:18:46.927Z,11.90
2023-03-12T14:28:57.893Z,9.27
2023-03-12T14:39:20.393Z,14.47
2023-03-12T14:49:23.669Z,8.33
2023-03-12T14:59:32.149Z,8.00
2023-03-12T15:09:37.596Z,13.33
2023-03-12T15:19:43.470Z,13.63
2023-03-12T15:29:46.646Z,16.83
2023-03-12T15:39:53.684Z,17.73
2023-03-12T15:49:59.551Z,20.33
2023-03-12T16:00:28.882Z,21.77
2023-03-12T16:10:38.984Z,21.17
2023-03-12T16:20:43.810Z,18.03
2023-03-12T16:30:48.632Z,22.53
2023-03-12T16:40:54.548Z,23.33
2023-03-12T16:50:58.866Z,19.33
2023-03-12T17:01:03.641Z,25.87
2023-03-12T17:11:15.193Z,26.37
2023-03-12T17:21:20.442Z,20.40
2023-03-12T17:31:24.782Z,23.37
2023-03-12T17:41:29.126Z,31.07
2023-03-12T17:51:33.699Z,28.20
2023-03-12T18:01:38.444Z,29.40
2023-03-12T18:11:41.387Z,21.70
2023-03-12T18:21:45.869Z,26.17
2023-03-12T18:31:49.308Z,21.37
2023-03-12T18:41:56.904Z,31.30
2023-03-12T18:52:00.643Z,28.87
2023-03-12T19:02:05.898Z,23.07
2023-03-12T19:12:09.192Z,21.87
2023-03-12T19:22:13.576Z,28.27
2023-03-12T19:32:16.740Z,31.30
2023-03-12T19:42:21.529Z,26.63
2023-03-12T19:52:25.359Z,26.33
2023-03-12T20:02:30.093Z,30.00
2023-03-12T20:12:34.490Z,26.60
2023-03-12T20:22:40.610Z,16.63
2023-03-12T20:32:44.213Z,24.10
2023-03-12T20:42:48.920Z,22.63
2023-03-12T20:52:52.224Z,18.83
2023-03-12T21:02:56.968Z,24.57
2023-03-12T21:12:59.929Z,27.77
2023-03-12T21:23:04.937Z,23.93
2023-03-12T21:33:08.753Z,21.90
2023-03-12T21:43:13.243Z,19.33
2023-03-12T21:53:23.527Z,21.33
2023-03-12T22:03:28.714Z,19.53
2023-03-12T22:13:31.827Z,18.27
2023-03-12T22:23:37.688Z,15.07
2023-03-12T22:33:41.298Z,11.47
2023-03-12T22:43:46.694Z,23.20
2023-03-12T22:53:50.162Z,21.40
2023-03-12T23:03:54.727Z,15.67
2023-03-12T23:13:58.009Z,22.97
2023-03-12T23:24:02.279Z,15.73
2023-03-12T23:34:05.652Z,19.67
2023-03-12T23:44:10.037Z,15.23
2023-03-12T23:54:13.278Z,22.80
